createdAt,value
2017-11-09T00:02:02.110Z,25.17
2017-11-09T00:04:41.021Z,25.10
2017-11-09T00:07:09.039Z,26.60
2017-11-09T00:09:53.934Z,26.43
2017-11-09T00:15:16.698Z,27.03
2017-11-09T00:17:43.694Z,27.43
2017-11-09T00:20:09.747Z,25.00
2017-11-09T00:22:42.586Z,26.70
2017-11-09T00:25:10.594Z,24.80
2017-11-09T00:27:37.544Z,23.87
2017-11-09T00:30:03.608Z,24.10
2017-11-09T00:32:50.662Z,26.73
2017-11-09T00:35:27.258Z,23.97
2017-11-09T00:37:57.586Z,25.20
2017-11-09T00:40:28.925Z,26.20
2017-11-09T00:42:54.995Z,23.67
2017-11-09T00:45:35.667Z,23.97
2017-11-09T00:48:21.584Z,25.17
2017-11-09T00:50:51.427Z,24.00
2017-11-09T00:53:25.686Z,23.83
2017-11-09T00:56:02.227Z,25.23
2017-11-09T00:58:35.422Z,24.53
2017-11-09T01:01:02.840Z,26.00
2017-11-09T01:06:22.178Z,22.67
2017-11-09T01:08:49.204Z,21.67
2017-11-09T01:11:21.809Z,21.27
2017-11-09T01:14:08.255Z,21.87
2017-11-09T01:16:50.003Z,21.90
2017-11-09T01:19:33.950Z,22.23
2017-11-09T01:21:59.859Z,20.30
2017-11-09T01:24:40.539Z,21.60
2017-11-09T01:27:10.336Z,22.97
2017-11-09T01:29:37.571Z,23.37
2017-11-09T01:32:06.266Z,23.63
2017-11-09T01:34:43.879Z,21.33
2017-11-09T01:37:11.870Z,22.13
2017-11-09T01:39:41.638Z,24.13
2017-11-09T01:42:18.084Z,22.43
2017-11-09T01:44:45.152Z,23.90
2017-11-09T01:47:11.209Z,23.00
2017-11-09T01:49:39.187Z,24.40
2017-11-09T01:52:05.222Z,22.80
2017-11-09T01:54:31.227Z,21.50
2017-11-09T01:56:59.204Z,25.23
2017-11-09T01:59:25.935Z,22.30
2017-11-09T02:01:55.262Z,21.33
2017-11-09T02:04:37.896Z,21.93
2017-11-09T02:07:12.603Z,21.07
2017-11-09T02:09:50.736Z,22.73
2017-11-09T02:12:20.411Z,21.40
2017-11-09T02:14:59.952Z,19.90
2017-11-09T02:17:27.713Z,22.57
2017-11-09T02:19:59.086Z,22.07
2017-11-09T02:22:35.563Z,21.07
2017-11-09T02:25:19.195Z,23.97
2017-11-09T02:27:50.688Z,23.00
2017-11-09T02:30:16.607Z,21.60
2017-11-09T02:32:42.571Z,22.17
2017-11-09T02:35:27.063Z,21.57
2017-11-09T02:38:03.739Z,22.53
2017-11-09T02:40:44.400Z,23.33
2017-11-09T02:43:10.402Z,20.80
2017-11-09T02:45:37.181Z,19.17
2017-11-09T02:48:03.226Z,24.00
2017-11-09T02:50:33.693Z,22.10
2017-11-09T02:53:08.355Z,21.63
2017-11-09T02:55:34.344Z,20.83
2017-11-09T02:58:03.075Z,23.20
2017-11-09T03:00:29.067Z,22.20
2017-11-09T03:02:54.999Z,22.50
2017-11-09T03:05:22.755Z,21.20
2017-11-09T03:07:52.163Z,22.87
2017-11-09T03:10:21.600Z,25.27
2017-11-09T03:13:03.212Z,21.53
2017-11-09T03:15:33.628Z,20.60
2017-11-09T03:18:07.625Z,21.00
2017-11-09T03:20:54.167Z,21.90
2017-11-09T03:23:28.229Z,21.17
2017-11-09T03:26:05.832Z,23.07
2017-11-09T03:31:28.062Z,21.43
2017-11-09T03:34:02.467Z,21.23
2017-11-09T03:36:31.145Z,23.87
2017-11-09T03:39:07.635Z,22.90
2017-11-09T03:41:41.064Z,22.80
2017-11-09T03:44:07.176Z,23.17
2017-11-09T03:46:37.127Z,23.00
2017-11-09T03:49:09.772Z,21.50
2017-11-09T03:51:44.512Z,21.07
2017-11-09T03:54:10.524Z,23.70
2017-11-09T03:56:45.419Z,22.53
2017-11-09T03:59:18.761Z,23.47
2017-11-09T04:01:51.808Z,21.40
2017-11-09T04:04:29.231Z,22.10
2017-11-09T04:06:55.915Z,20.70
2017-11-09T04:09:28.129Z,21.63
2017-11-09T04:12:00.162Z,21.03
2017-11-09T04:14:26.970Z,20.57
2017-11-09T04:16:59.495Z,19.03
2017-11-09T04:19:36.946Z,19.67
2017-11-09T04:22:02.907Z,20.80
2017-11-09T04:24:28.858Z,19.70
2017-11-09T04:26:54.938Z,19.33
2017-11-09T04:32:20.103Z,20.40
2017-11-09T04:34:57.142Z,20.47
2017-11-09T04:37:24.169Z,19.63
2017-11-09T04:39:50.890Z,20.37
2017-11-09T04:45:34.294Z,18.97
2017-11-09T04:48:02.337Z,20.40
2017-11-09T04:50:31.934Z,20.67
2017-11-09T04:53:02.768Z,24.10
2017-11-09T04:55:38.223Z,22.27
2017-11-09T04:58:04.179Z,26.33
2017-11-09T05:00:33.839Z,25.00
2017-11-09T05:03:00.532Z,26.30
2017-11-09T05:05:39.447Z,25.40
2017-11-09T05:08:08.486Z,24.90
2017-11-09T05:10:34.539Z,22.37
2017-11-09T05:13:01.287Z,22.90
2017-11-09T05:15:29.124Z,24.20
2017-11-09T05:17:55.170Z,22.97
2017-11-09T05:20:21.191Z,25.03
2017-11-09T05:22:51.011Z,23.40
2017-11-09T05:25:25.371Z,23.47
2017-11-09T05:27:52.414Z,26.93
2017-11-09T05:30:21.211Z,28.40
2017-11-09T05:32:47.158Z,25.47
2017-11-09T05:35:25.478Z,26.03
2017-11-09T05:37:51.464Z,26.37
2017-11-09T05:40:39.041Z,26.27
2017-11-09T05:43:05.021Z,23.50
2017-11-09T05:45:32.717Z,22.43
2017-11-09T05:48:02.526Z,21.70
2017-11-09T05:50:28.485Z,22.30
2017-11-09T05:52:54.431Z,22.50
2017-11-09T05:55:20.450Z,21.97
2017-11-09T05:57:46.414Z,23.93
2017-11-09T06:00:25.742Z,22.80
2017-11-09T06:02:52.438Z,26.60
2017-11-09T06:05:20.504Z,25.27
2017-11-09T06:07:50.359Z,27.37
2017-11-09T06:10:16.401Z,27.30
2017-11-09T06:12:45.285Z,32.00
2017-11-09T06:15:12.287Z,28.73
2017-11-09T06:17:38.362Z,31.40
2017-11-09T06:20:04.967Z,32.87
2017-11-09T06:22:30.904Z,32.47
2017-11-09T06:24:56.871Z,39.17
2017-11-09T06:27:38.206Z,36.50
2017-11-09T06:30:04.185Z,36.77
2017-11-09T06:32:30.420Z,36.67
2017-11-09T06:35:23.785Z,38.10
2017-11-09T06:37:57.799Z,35.07
2017-11-09T06:40:28.433Z,37.33
2017-11-09T06:43:03.883Z,33.43
2017-11-09T06:45:29.895Z,36.80
2017-11-09T06:48:11.990Z,37.27
2017-11-09T06:50:46.558Z,37.00
2017-11-09T06:53:12.561Z,32.93
2017-11-09T06:55:49.528Z,34.03
2017-11-09T06:58:35.187Z,36.50
2017-11-09T07:01:06.743Z,32.50
2017-11-09T07:03:40.287Z,33.50
2017-11-09T07:06:06.234Z,30.30
2017-11-09T07:08:33.306Z,31.30
2017-11-09T07:11:07.059Z,34.37
2017-11-09T07:13:33.052Z,36.83
2017-11-09T07:15:59.053Z,40.67
2017-11-09T07:18:32.210Z,39.00
2017-11-09T07:21:12.800Z,40.63
2017-11-09T07:23:38.762Z,38.00
2017-11-09T07:26:04.743Z,38.30
2017-11-09T07:28:30.722Z,37.03
2017-11-09T07:30:57.683Z,37.20
2017-11-09T07:33:26.375Z,36.90
2017-11-09T07:36:03.478Z,39.73
2017-11-09T07:38:47.160Z,34.87
2017-11-09T07:41:23.680Z,38.00
2017-11-09T07:43:53.391Z,37.87
2017-11-09T07:46:20.441Z,38.53
2017-11-09T07:48:54.455Z,38.80
2017-11-09T07:51:33.977Z,42.63
2017-11-09T07:54:04.303Z,43.07
2017-11-09T07:56:32.393Z,42.17
2017-11-09T07:59:00.183Z,41.23
2017-11-09T08:01:33.353Z,41.80
2017-11-09T08:03:59.386Z,42.40
2017-11-09T08:06:35.653Z,43.43
2017-11-09T08:09:09.010Z,43.50
2017-11-09T08:11:36.006Z,43.97
2017-11-09T08:14:17.431Z,41.50
2017-11-09T08:16:43.494Z,44.00
2017-11-09T08:19:20.903Z,40.67
2017-11-09T08:21:46.850Z,41.83
2017-11-09T08:24:17.716Z,40.00
2017-11-09T08:26:45.520Z,42.97
2017-11-09T08:29:13.882Z,44.37
2017-11-09T08:31:41.594Z,43.37
2017-11-09T08:34:07.515Z,39.33
2017-11-09T08:36:33.437Z,40.47
2017-11-09T08:39:00.132Z,42.33
2017-11-09T08:41:26.864Z,41.33
2017-11-09T08:43:52.843Z,43.90
2017-11-09T08:46:20.523Z,40.33
2017-11-09T08:48:46.444Z,39.47
2017-11-09T08:51:13.112Z,42.90
2017-11-09T08:53:39.024Z,44.47
2017-11-09T08:56:05.710Z,40.80
2017-11-09T08:58:31.643Z,38.90
2017-11-09T09:00:57.568Z,40.90
2017-11-09T09:03:23.545Z,42.53
2017-11-09T09:05:51.191Z,40.80
2017-11-09T09:08:17.159Z,39.63
2017-11-09T09:10:43.107Z,38.13
2017-11-09T09:13:09.046Z,37.03
2017-11-09T09:15:35.007Z,39.50
2017-11-09T09:18:01.692Z,40.40
2017-11-09T09:20:42.567Z,38.83
2017-11-09T09:23:08.534Z,39.30
2017-11-09T09:25:36.518Z,40.10
2017-11-09T09:28:04.259Z,39.10
2017-11-09T09:30:30.245Z,42.33
2017-11-09T09:32:57.696Z,41.27
2017-11-09T09:38:39.332Z,39.33
2017-11-09T09:41:05.291Z,38.07
2017-11-09T09:43:31.235Z,37.97
2017-11-09T09:45:57.951Z,35.97
2017-11-09T09:48:24.018Z,36.90
2017-11-09T09:50:49.998Z,36.50
2017-11-09T09:53:18.006Z,36.53
2017-11-09T09:55:44.714Z,36.10
2017-11-09T09:58:11.394Z,34.93
2017-11-09T10:00:37.357Z,35.43
2017-11-09T10:03:03.295Z,34.07
2017-11-09T10:05:29.255Z,33.80
2017-11-09T10:07:55.202Z,34.17
2017-11-09T10:10:21.903Z,36.37
2017-11-09T10:12:47.872Z,30.97
2017-11-09T10:15:13.826Z,31.70
2017-11-09T10:17:39.779Z,30.93
2017-11-09T10:20:05.781Z,31.47
2017-11-09T10:22:31.728Z,28.43
2017-11-09T10:24:57.690Z,29.17
2017-11-09T10:27:23.640Z,28.00
2017-11-09T10:29:49.572Z,27.30
2017-11-09T10:32:17.268Z,30.73
2017-11-09T10:34:43.206Z,32.30
2017-11-09T10:37:12.694Z,29.93
2017-11-09T10:39:40.370Z,28.40
2017-11-09T10:42:08.187Z,30.87
2017-11-09T10:44:40.428Z,29.80
2017-11-09T10:47:06.346Z,28.70
2017-11-09T10:49:35.538Z,29.20
2017-11-09T10:52:01.500Z,27.70
2017-11-09T10:54:31.247Z,27.50
2017-11-09T10:56:57.180Z,26.47
2017-11-09T10:59:23.115Z,25.90
2017-11-09T11:01:53.576Z,25.70
2017-11-09T11:04:20.523Z,24.67
2017-11-09T11:06:47.463Z,25.37
2017-11-09T11:09:13.395Z,23.43
2017-11-09T11:11:39.329Z,25.23
2017-11-09T11:14:05.280Z,23.13
2017-11-09T11:16:31.219Z,23.60
2017-11-09T11:18:57.173Z,21.47
2017-11-09T11:21:23.872Z,20.57
2017-11-09T11:23:49.799Z,21.10
2017-11-09T11:26:26.946Z,20.87
2017-11-09T11:28:54.730Z,21.00
2017-11-09T11:31:34.896Z,22.30
2017-11-09T11:34:22.343Z,27.63
2017-11-09T11:36:51.023Z,28.13
2017-11-09T11:39:16.993Z,25.50
2017-11-09T11:41:45.710Z,27.17
2017-11-09T11:44:21.863Z,27.40
2017-11-09T11:46:47.844Z,26.40
2017-11-09T11:49:13.804Z,30.63
2017-11-09T11:51:40.492Z,29.37
2017-11-09T11:54:06.439Z,30.30
2017-11-09T11:56:32.402Z,28.40
2017-11-09T11:58:59.082Z,28.97
2017-11-09T12:01:25.041Z,27.20
2017-11-09T12:03:50.961Z,29.00
2017-11-09T12:06:16.897Z,28.50
2017-11-09T12:08:42.869Z,28.87
2017-11-09T12:11:11.976Z,30.13
2017-11-09T12:13:37.947Z,30.83
2017-11-09T12:16:03.888Z,30.17
2017-11-09T12:18:33.025Z,28.63
2017-11-09T12:21:03.360Z,29.93
2017-11-09T12:23:30.035Z,30.10
2017-11-09T12:25:55.962Z,27.90
2017-11-09T12:28:21.977Z,29.30
2017-11-09T12:30:47.927Z,28.10
2017-11-09T12:33:13.861Z,29.77
2017-11-09T12:35:39.798Z,30.10
2017-11-09T12:38:05.731Z,28.27
2017-11-09T12:40:35.411Z,27.80
2017-11-09T12:43:01.424Z,29.20
2017-11-09T12:45:27.362Z,27.80
2017-11-09T12:47:53.312Z,27.57
2017-11-09T12:50:19.266Z,28.63
2017-11-09T12:52:45.248Z,28.67
2017-11-09T12:55:11.183Z,27.50
2017-11-09T12:57:37.104Z,27.77
2017-11-09T13:00:03.046Z,28.10
2017-11-09T13:02:28.997Z,26.83
2017-11-09T13:04:54.947Z,29.27
2017-11-09T13:07:22.631Z,28.03
2017-11-09T13:09:48.567Z,26.87
2017-11-09T13:12:16.632Z,29.30
2017-11-09T13:14:42.582Z,28.77
2017-11-09T13:17:08.520Z,26.67
2017-11-09T13:19:34.527Z,26.87
2017-11-09T13:22:00.491Z,23.60
2017-11-09T13:24:26.423Z,27.70
2017-11-09T13:26:52.427Z,30.10
2017-11-09T13:29:18.371Z,30.00
2017-11-09T13:31:44.307Z,27.47
2017-11-09T13:34:10.242Z,29.80
2017-11-09T13:36:39.879Z,29.13
2017-11-09T13:39:07.607Z,29.47
2017-11-09T13:41:33.543Z,28.03
2017-11-09T13:43:59.543Z,30.00
2017-11-09T13:46:25.487Z,27.97
2017-11-09T13:48:51.422Z,28.43
2017-11-09T13:51:17.380Z,28.20
2017-11-09T13:53:45.095Z,28.27
2017-11-09T13:56:11.017Z,32.70
2017-11-09T13:58:36.959Z,28.30
2017-11-09T14:01:02.915Z,31.07
2017-11-09T14:03:28.845Z,28.97
2017-11-09T14:05:55.188Z,29.30
2017-11-09T14:08:21.644Z,29.37
2017-11-09T14:10:47.603Z,29.10
2017-11-09T14:13:13.569Z,30.93
2017-11-09T14:15:39.519Z,28.17
2017-11-09T14:18:07.199Z,29.63
2017-11-09T14:20:33.867Z,28.77
2017-11-09T14:22:59.893Z,29.53
2017-11-09T14:25:25.818Z,28.90
2017-11-09T14:27:51.804Z,27.77
2017-11-09T14:30:17.739Z,34.87
2017-11-09T14:32:43.646Z,30.60
2017-11-09T14:35:09.586Z,30.90
2017-11-09T14:37:35.536Z,31.40
2017-11-09T14:40:01.473Z,30.13
2017-11-09T14:42:27.431Z,30.07
2017-11-09T14:44:53.384Z,31.40
2017-11-09T14:47:21.257Z,30.67
2017-11-09T14:49:47.181Z,30.77
2017-11-09T14:52:16.201Z,28.57
2017-11-09T14:54:45.907Z,30.37
2017-11-09T14:57:11.827Z,29.90
2017-11-09T14:59:37.747Z,31.30
2017-11-09T15:02:03.736Z,31.30
2017-11-09T15:04:29.691Z,30.67
2017-11-09T15:06:55.623Z,32.37
2017-11-09T15:09:21.578Z,32.47
2017-11-09T15:11:52.159Z,28.80
2017-11-09T15:14:18.113Z,28.73
2017-11-09T15:16:44.043Z,28.10
2017-11-09T15:19:25.801Z,30.63
2017-11-09T15:21:59.213Z,30.27
2017-11-09T15:24:25.192Z,29.27
2017-11-09T15:26:51.149Z,29.20
2017-11-09T15:29:17.208Z,29.03
2017-11-09T15:31:46.243Z,28.13
2017-11-09T15:34:12.182Z,29.03
2017-11-09T15:36:39.090Z,29.97
2017-11-09T15:39:05.816Z,32.70
2017-11-09T15:41:31.779Z,31.43
2017-11-09T15:43:57.704Z,31.13
2017-11-09T15:46:23.641Z,31.27
2017-11-09T15:48:50.619Z,28.87
2017-11-09T15:51:16.556Z,30.83
2017-11-09T15:53:54.544Z,30.53
2017-11-09T15:56:20.577Z,29.80
2017-11-09T15:58:47.608Z,30.07
2017-11-09T16:01:15.299Z,31.27
2017-11-09T16:03:44.680Z,30.17
2017-11-09T16:06:10.614Z,32.60
2017-11-09T16:08:43.542Z,29.43
2017-11-09T16:11:09.464Z,26.93
2017-11-09T16:13:35.395Z,30.90
2017-11-09T16:16:02.433Z,32.00
2017-11-09T16:18:28.370Z,26.60
2017-11-09T16:20:54.279Z,30.10
2017-11-09T16:23:24.201Z,25.97
2017-11-09T16:25:50.247Z,31.30
2017-11-09T16:28:16.532Z,28.00
2017-11-09T16:30:44.619Z,28.00
2017-11-09T16:33:19.495Z,30.27
2017-11-09T16:35:45.567Z,32.00
2017-11-09T16:38:22.200Z,28.33
2017-11-09T16:40:50.452Z,30.60
2017-11-09T16:43:35.047Z,27.37
2017-11-09T16:46:04.567Z,28.73
2017-11-09T16:48:30.604Z,30.70
2017-11-09T16:50:56.642Z,28.30
2017-11-09T16:53:37.077Z,27.53
2017-11-09T16:56:05.795Z,28.33
2017-11-09T16:58:31.822Z,28.87
2017-11-09T17:01:24.743Z,29.60
2017-11-09T17:03:57.264Z,27.90
2017-11-09T17:06:24.000Z,28.60
2017-11-09T17:09:11.427Z,29.57
2017-11-09T17:11:37.354Z,29.00
2017-11-09T17:14:10.369Z,28.70
2017-11-09T17:16:41.881Z,28.17
2017-11-09T17:19:30.700Z,28.03
2017-11-09T17:22:04.207Z,27.97
2017-11-09T17:24:33.935Z,26.20
2017-11-09T17:27:00.951Z,25.53
2017-11-09T17:29:32.569Z,28.70
2017-11-09T17:32:06.093Z,27.00
2017-11-09T17:34:47.653Z,25.10
2017-11-09T17:37:30.215Z,26.97
2017-11-09T17:39:59.959Z,27.70
2017-11-09T17:42:41.524Z,26.20
2017-11-09T17:45:07.575Z,27.03
2017-11-09T17:47:37.984Z,27.40
2017-11-09T17:50:14.387Z,28.07
2017-11-09T17:53:02.779Z,28.40
2017-11-09T17:55:53.058Z,28.17
2017-11-09T17:58:19.008Z,27.20
2017-11-09T18:00:47.002Z,27.67
2017-11-09T18:03:34.456Z,27.30
2017-11-09T18:06:27.141Z,27.43
2017-11-09T18:09:17.906Z,29.97
2017-11-09T18:11:43.887Z,28.10
2017-11-09T18:14:20.063Z,31.43
2017-11-09T18:16:51.475Z,28.40
2017-11-09T18:19:17.430Z,29.77
2017-11-09T18:21:49.358Z,30.67
2017-11-09T18:24:20.923Z,31.10
2017-11-09T18:27:04.720Z,30.40
2017-11-09T18:29:51.434Z,30.37
2017-11-09T18:35:14.704Z,31.60
2017-11-09T18:37:50.970Z,32.77
2017-11-09T18:40:19.000Z,31.50
2017-11-09T18:42:49.105Z,30.50
2017-11-09T18:45:28.255Z,30.73
2017-11-09T18:48:05.010Z,32.73
2017-11-09T18:50:34.350Z,29.83
2017-11-09T18:53:07.212Z,28.77
2017-11-09T18:55:36.704Z,30.93
2017-11-09T18:58:15.891Z,30.53
2017-11-09T19:00:42.589Z,29.40
2017-11-09T19:03:29.060Z,27.57
2017-11-09T19:05:55.061Z,27.00
2017-11-09T19:08:46.936Z,26.60
2017-11-09T19:11:19.431Z,25.50
2017-11-09T19:14:09.956Z,24.20
2017-11-09T19:16:35.891Z,23.53
2017-11-09T19:19:12.953Z,24.50
2017-11-09T19:21:38.899Z,24.00
2017-11-09T19:24:04.939Z,22.00
2017-11-09T19:26:35.175Z,21.60
2017-11-09T19:29:01.929Z,21.97
2017-11-09T19:34:22.839Z,22.00
2017-11-09T19:36:53.966Z,23.37
2017-11-09T19:39:19.999Z,21.20
2017-11-09T19:41:49.840Z,22.53
2017-11-09T19:44:30.213Z,22.17
2017-11-09T19:46:58.170Z,23.00
2017-11-09T19:49:37.449Z,22.10
2017-11-09T19:52:10.120Z,23.77
2017-11-09T19:54:37.099Z,23.57
2017-11-09T19:57:03.173Z,22.30
2017-11-09T19:59:29.131Z,22.07
2017-11-09T20:01:55.109Z,21.77
2017-11-09T20:04:21.946Z,21.80
2017-11-09T20:06:51.080Z,21.13
2017-11-09T20:09:20.400Z,21.27
2017-11-09T20:11:46.416Z,19.53
2017-11-09T20:14:19.083Z,22.23
2017-11-09T20:16:54.535Z,20.33
2017-11-09T20:19:21.682Z,20.17
2017-11-09T20:21:50.415Z,20.10
2017-11-09T20:24:33.842Z,17.40
2017-11-09T20:27:00.827Z,19.53
2017-11-09T20:29:33.652Z,19.97
2017-11-09T20:32:14.392Z,19.10
2017-11-09T20:34:41.075Z,18.67
2017-11-09T20:40:08.072Z,19.00
2017-11-09T20:42:52.820Z,19.67
2017-11-09T20:45:18.881Z,17.97
2017-11-09T20:47:47.925Z,18.93
2017-11-09T20:50:28.183Z,21.50
2017-11-09T20:53:01.103Z,19.60
2017-11-09T20:55:27.118Z,20.03
2017-11-09T20:57:53.174Z,18.90
2017-11-09T21:00:19.218Z,19.70
2017-11-09T21:02:47.159Z,22.97
2017-11-09T21:05:14.121Z,20.20
2017-11-09T21:07:44.911Z,18.87
2017-11-09T21:10:12.948Z,19.87
2017-11-09T21:12:46.964Z,18.07
2017-11-09T21:15:14.715Z,18.50
2017-11-09T21:17:41.681Z,17.50
2017-11-09T21:20:19.526Z,22.93
2017-11-09T21:22:45.463Z,19.63
2017-11-09T21:25:15.559Z,18.70
2017-11-09T21:27:42.606Z,19.20
2017-11-09T21:30:08.598Z,20.20
2017-11-09T21:32:49.924Z,20.00
2017-11-09T21:35:26.667Z,19.37
2017-11-09T21:37:56.163Z,19.20
2017-11-09T21:40:26.504Z,19.87
2017-11-09T21:42:53.561Z,20.10
2017-11-09T21:45:19.595Z,18.80
2017-11-09T21:47:45.608Z,18.40
2017-11-09T21:50:13.354Z,20.73
2017-11-09T21:52:52.664Z,20.67
2017-11-09T21:55:25.294Z,18.13
2017-11-09T21:57:53.113Z,20.70
2017-11-09T22:00:23.650Z,19.20
2017-11-09T22:03:00.999Z,21.77
2017-11-09T22:05:45.605Z,19.97
2017-11-09T22:08:11.674Z,18.33
2017-11-09T22:10:48.337Z,17.60
2017-11-09T22:13:31.096Z,17.27
2017-11-09T22:16:08.643Z,21.20
2017-11-09T22:18:35.389Z,18.73
2017-11-09T22:21:17.191Z,19.40
2017-11-09T22:23:46.782Z,17.93
2017-11-09T22:26:18.043Z,17.40
2017-11-09T22:28:48.342Z,17.53
2017-11-09T22:31:17.161Z,18.20
2017-11-09T22:33:43.095Z,17.10
2017-11-09T22:36:24.156Z,18.87
2017-11-09T22:38:56.369Z,16.53
2017-11-09T22:41:25.827Z,20.80
2017-11-09T22:43:52.551Z,18.60
2017-11-09T22:46:31.674Z,18.20
2017-11-09T22:48:57.792Z,20.40
2017-11-09T22:51:29.483Z,17.00
2017-11-09T22:53:56.229Z,16.60
2017-11-09T22:56:24.394Z,17.63
2017-11-09T22:58:51.379Z,17.80
2017-11-09T23:01:31.673Z,18.60
2017-11-09T23:04:12.371Z,18.90
2017-11-09T23:06:41.987Z,19.13
2017-11-09T23:09:19.489Z,19.70
2017-11-09T23:12:04.161Z,17.60
2017-11-09T23:14:37.384Z,20.23
2017-11-09T23:17:11.387Z,19.27
2017-11-09T23:19:43.164Z,19.33
2017-11-09T23:22:20.824Z,20.57
2017-11-09T23:24:51.496Z,19.10
2017-11-09T23:27:17.520Z,19.73
2017-11-09T23:29:47.155Z,19.43
2017-11-09T23:32:13.248Z,20.17
2017-11-09T23:34:42.873Z,21.60
2017-11-09T23:37:09.462Z,19.27
2017-11-09T23:39:49.951Z,21.53
2017-11-09T23:48:01.591Z,21.00
2017-11-09T23:50:32.913Z,20.87
2017-11-09T23:53:05.520Z,19.07
2017-11-09T23:55:42.951Z,20.53
2017-11-09T23:58:29.215Z,20.13
